sensor_id;sensor_type;location;lat;lon;timestamp;P1;durP1;ratioP1;P2;durP2;ratioP2
62925;SDS011;55732;52.248;-0.844;2022-08-19T00:00:04;1.70;;;1.30;;
62925;SDS011;55732;52.248;-0.844;2022-08-19T00:02:35;2.90;;;1.30;;
62925;SDS011;55732;52.248;-0.844;2022-08-19T00:05:01;4.50;;;1.30;;
62925;SDS011;55732;52.248;-0.844;2022-08-19T00:07:28;4.00;;;1.50;;
62925;SDS011;55732;52.248;-0.844;2022-08-19T00:09:54;2.30;;;1.30;;
62925;SDS011;55732;52.248;-0.844;2022-08-19T00:12:21;3.10;;;1.30;;
62925;SDS011;55732;52.248;-0.844;2022-08-19T00:14:46;1.40;;;1.30;;
62925;SDS011;55732;52.248;-0.844;2022-08-19T00:17:12;2.50;;;1.60;;
62925;SDS011;55732;52.248;-0.844;2022-08-19T00:19:37;3.30;;;1.50;;
62925;SDS011;55732;52.248;-0.844;2022-08-19T00:22:03;2.60;;;1.50;;
62925;SDS011;55732;52.248;-0.844;2022-08-19T00:24:30;2.60;;;1.50;;
62925;SDS011;55732;52.248;-0.844;2022-08-19T00:26:56;1.40;;;1.30;;
62925;SDS011;55732;52.248;-0.844;2022-08-19T00:29:23;5.20;;;1.60;;
62925;SDS011;55732;52.248;-0.844;2022-08-19T00:31:50;1.50;;;1.20;;
62925;SDS011;55732;52.248;-0.844;2022-08-19T00:34:20;1.50;;;1.40;;
62925;SDS011;55732;52.248;-0.844;2022-08-19T00:36:46;3.30;;;1.60;;
62925;SDS011;55732;52.248;-0.844;2022-08-19T00:39:12;1.50;;;1.40;;
62925;SDS011;55732;52.248;-0.844;2022-08-19T00:41:40;1.80;;;1.50;;
62925;SDS011;55732;52.248;-0.844;2022-08-19T00:44:11;2.90;;;1.40;;
62925;SDS011;55732;52.248;-0.844;2022-08-19T00:46:41;2.40;;;1.30;;
62925;SDS011;55732;52.248;-0.844;2022-08-19T00:49:12;1.60;;;1.30;;
62925;SDS011;55732;52.248;-0.844;2022-08-19T00:51:43;1.20;;;1.10;;
62925;SDS011;55732;52.248;-0.844;2022-08-19T00:54:12;2.50;;;1.40;;
62925;SDS011;55732;52.248;-0.844;2022-08-19T00:56:38;3.30;;;1.40;;
62925;SDS011;55732;52.248;-0.844;2022-08-19T00:59:05;2.40;;;1.90;;
62925;SDS011;55732;52.248;-0.844;2022-08-19T01:01:43;1.50;;;1.40;;
62925;SDS011;55732;52.248;-0.844;2022-08-19T01:04:10;1.80;;;1.40;;
62925;SDS011;55732;52.248;-0.844;2022-08-19T01:06:36;2.40;;;1.30;;
62925;SDS011;55732;52.248;-0.844;2022-08-19T01:09:04;1.40;;;1.20;;
62925;SDS011;55732;52.248;-0.844;2022-08-19T01:11:30;2.80;;;1.10;;
62925;SDS011;55732;52.248;-0.844;2022-08-19T01:13:59;2.40;;;1.20;;
62925;SDS011;55732;52.248;-0.844;2022-08-19T01:16:25;1.70;;;1.20;;
62925;SDS011;55732;52.248;-0.844;2022-08-19T01:18:54;1.50;;;1.30;;
62925;SDS011;55732;52.248;-0.844;2022-08-19T01:21:25;1.50;;;1.40;;
62925;SDS011;55732;52.248;-0.844;2022-08-19T01:23:56;1.70;;;1.50;;
62925;SDS011;55732;52.248;-0.844;2022-08-19T01:26:23;1.30;;;1.20;;
62925;SDS011;55732;52.248;-0.844;2022-08-19T01:28:51;2.00;;;1.50;;
62925;SDS011;55732;52.248;-0.844;2022-08-19T01:31:20;3.40;;;1.40;;
62925;SDS011;55732;52.248;-0.844;2022-08-19T01:33:49;1.50;;;1.10;;
62925;SDS011;55732;52.248;-0.844;2022-08-19T01:36:24;1.90;;;1.10;;
62925;SDS011;55732;52.248;-0.844;2022-08-19T01:38:54;2.20;;;1.70;;
62925;SDS011;55732;52.248;-0.844;2022-08-19T01:41:20;1.70;;;1.50;;
62925;SDS011;55732;52.248;-0.844;2022-08-19T01:43:48;1.90;;;1.30;;
62925;SDS011;55732;52.248;-0.844;2022-08-19T01:46:15;1.50;;;1.40;;
62925;SDS011;55732;52.248;-0.844;2022-08-19T01:48:42;1.80;;;1.50;;
62925;SDS011;55732;52.248;-0.844;2022-08-19T01:51:09;2.90;;;1.40;;
62925;SDS011;55732;52.248;-0.844;2022-08-19T01:53:35;1.20;;;1.10;;
62925;SDS011;55732;52.248;-0.844;2022-08-19T01:56:02;1.40;;;1.00;;
62925;SDS011;55732;52.248;-0.844;2022-08-19T01:58:29;1.80;;;1.20;;
62925;SDS011;55732;52.248;-0.844;2022-08-19T02:01:02;1.80;;;1.30;;
62925;SDS011;55732;52.248;-0.844;2022-08-19T02:03:29;1.20;;;1.20;;
62925;SDS011;55732;52.248;-0.844;2022-08-19T02:05:56;1.20;;;1.20;;
62925;SDS011;55732;52.248;-0.844;2022-08-19T02:08:25;1.40;;;1.40;;
62925;SDS011;55732;52.248;-0.844;2022-08-19T02:10:52;1.30;;;1.20;;
62925;SDS011;55732;52.248;-0.844;2022-08-19T02:13:19;2.00;;;1.30;;
62925;SDS011;55732;52.248;-0.844;2022-08-19T02:15:45;1.30;;;1.20;;
62925;SDS011;55732;52.248;-0.844;2022-08-19T02:18:11;1.20;;;1.10;;
62925;SDS011;55732;52.248;-0.844;2022-08-19T02:20:38;2.20;;;1.00;;
62925;SDS011;55732;52.248;-0.844;2022-08-19T02:23:05;1.00;;;1.00;;
62925;SDS011;55732;52.248;-0.844;2022-08-19T02:25:31;1.80;;;1.30;;
62925;SDS011;55732;52.248;-0.844;2022-08-19T02:27:57;1.40;;;1.30;;
62925;SDS011;55732;52.248;-0.844;2022-08-19T02:30:22;3.40;;;1.50;;
62925;SDS011;55732;52.248;-0.844;2022-08-19T02:32:49;1.50;;;1.40;;
62925;SDS011;55732;52.248;-0.844;2022-08-19T02:35:16;1.60;;;1.30;;
62925;SDS011;55732;52.248;-0.844;2022-08-19T02:37:42;1.30;;;1.20;;
62925;SDS011;55732;52.248;-0.844;2022-08-19T02:40:28;7.80;;;1.40;;
62925;SDS011;55732;52.248;-0.844;2022-08-19T02:42:57;1.20;;;1.00;;
62925;SDS011;55732;52.248;-0.844;2022-08-19T02:45:23;2.20;;;1.10;;
62925;SDS011;55732;52.248;-0.844;2022-08-19T02:47:49;1.10;;;1.00;;
62925;SDS011;55732;52.248;-0.844;2022-08-19T02:50:14;1.90;;;1.20;;
62925;SDS011;55732;52.248;-0.844;2022-08-19T02:52:40;1.50;;;1.40;;
62925;SDS011;55732;52.248;-0.844;2022-08-19T02:55:06;1.50;;;1.40;;
62925;SDS011;55732;52.248;-0.844;2022-08-19T02:57:31;5.50;;;1.40;;
62925;SDS011;55732;52.248;-0.844;2022-08-19T02:59:57;1.50;;;1.30;;
62925;SDS011;55732;52.248;-0.844;2022-08-19T03:02:23;1.20;;;1.10;;
62925;SDS011;55732;52.248;-0.844;2022-08-19T03:04:49;2.80;;;1.40;;
62925;SDS011;55732;52.248;-0.844;2022-08-19T03:07:16;2.10;;;1.10;;
62925;SDS011;55732;52.248;-0.844;2022-08-19T03:09:43;1.10;;;1.00;;
62925;SDS011;55732;52.248;-0.844;2022-08-19T03:12:09;1.60;;;1.30;;
62925;SDS011;55732;52.248;-0.844;2022-08-19T03:14:35;2.10;;;1.20;;
62925;SDS011;55732;52.248;-0.844;2022-08-19T03:17:01;1.20;;;1.10;;
62925;SDS011;55732;52.248;-0.844;2022-08-19T03:19:29;1.30;;;1.20;;
62925;SDS011;55732;52.248;-0.844;2022-08-19T03:21:56;1.80;;;1.40;;
62925;SDS011;55732;52.248;-0.844;2022-08-19T03:24:22;1.30;;;1.30;;
62925;SDS011;55732;52.248;-0.844;2022-08-19T03:26:50;1.20;;;1.10;;
62925;SDS011;55732;52.248;-0.844;2022-08-19T03:29:19;1.20;;;1.10;;
62925;SDS011;55732;52.248;-0.844;2022-08-19T03:31:45;0.90;;;0.90;;
62925;SDS011;55732;52.248;-0.844;2022-08-19T03:34:12;3.20;;;1.20;;
62925;SDS011;55732;52.248;-0.844;2022-08-19T03:36:40;1.70;;;1.00;;
62925;SDS011;55732;52.248;-0.844;2022-08-19T03:39:05;1.30;;;1.20;;
62925;SDS011;55732;52.248;-0.844;2022-08-19T03:44:06;1.80;;;1.10;;
62925;SDS011;55732;52.248;-0.844;2022-08-19T03:46:33;1.30;;;1.10;;
62925;SDS011;55732;52.248;-0.844;2022-08-19T03:49:03;1.40;;;0.90;;
62925;SDS011;55732;52.248;-0.844;2022-08-19T03:51:36;1.00;;;1.00;;
62925;SDS011;55732;52.248;-0.844;2022-08-19T03:54:05;1.20;;;1.20;;
62925;SDS011;55732;52.248;-0.844;2022-08-19T03:56:34;1.70;;;0.90;;
62925;SDS011;55732;52.248;-0.844;2022-08-19T03:59:01;1.00;;;1.00;;
62925;SDS011;55732;52.248;-0.844;2022-08-19T04:01:29;1.40;;;1.10;;
62925;SDS011;55732;52.248;-0.844;2022-08-19T04:03:55;1.00;;;1.00;;
62925;SDS011;55732;52.248;-0.844;2022-08-19T04:06:23;1.30;;;1.20;;
62925;SDS011;55732;52.248;-0.844;2022-08-19T04:08:52;1.00;;;1.00;;
62925;SDS011;55732;52.248;-0.844;2022-08-19T04:11:21;0.90;;;0.90;;
62925;SDS011;55732;52.248;-0.844;2022-08-19T04:13:49;0.80;;;0.80;;
62925;SDS011;55732;52.248;-0.844;2022-08-19T04:16:17;2.10;;;0.90;;
62925;SDS011;55732;52.248;-0.844;2022-08-19T04:18:46;1.10;;;0.80;;
62925;SDS011;55732;52.248;-0.844;2022-08-19T04:21:17;2.40;;;0.90;;
62925;SDS011;55732;52.248;-0.844;2022-08-19T04:23:46;1.60;;;1.10;;
62925;SDS011;55732;52.248;-0.844;2022-08-19T04:26:15;1.20;;;1.10;;
62925;SDS011;55732;52.248;-0.844;2022-08-19T04:28:43;2.10;;;1.30;;
62925;SDS011;55732;52.248;-0.844;2022-08-19T04:31:17;2.40;;;1.10;;
62925;SDS011;55732;52.248;-0.844;2022-08-19T04:33:50;1.30;;;1.10;;
62925;SDS011;55732;52.248;-0.844;2022-08-19T04:36:27;2.50;;;1.10;;
62925;SDS011;55732;52.248;-0.844;2022-08-19T04:38:57;1.50;;;1.10;;
62925;SDS011;55732;52.248;-0.844;2022-08-19T04:41:25;1.30;;;1.10;;
62925;SDS011;55732;52.248;-0.844;2022-08-19T04:44:11;1.10;;;1.00;;
62925;SDS011;55732;52.248;-0.844;2022-08-19T04:46:38;0.90;;;0.90;;
62925;SDS011;55732;52.248;-0.844;2022-08-19T04:49:05;1.30;;;1.00;;
62925;SDS011;55732;52.248;-0.844;2022-08-19T04:51:33;1.00;;;1.00;;
62925;SDS011;55732;52.248;-0.844;2022-08-19T04:53:58;1.40;;;1.30;;
62925;SDS011;55732;52.248;-0.844;2022-08-19T04:56:26;2.90;;;1.30;;
62925;SDS011;55732;52.248;-0.844;2022-08-19T04:58:52;1.50;;;1.40;;
62925;SDS011;55732;52.248;-0.844;2022-08-19T05:01:21;1.00;;;1.00;;
62925;SDS011;55732;52.248;-0.844;2022-08-19T05:03:48;1.30;;;1.10;;
62925;SDS011;55732;52.248;-0.844;2022-08-19T05:06:15;1.20;;;1.10;;
62925;SDS011;55732;52.248;-0.844;2022-08-19T05:08:43;2.10;;;1.20;;
62925;SDS011;55732;52.248;-0.844;2022-08-19T05:11:13;1.90;;;1.20;;
62925;SDS011;55732;52.248;-0.844;2022-08-19T05:13:42;1.40;;;1.00;;
62925;SDS011;55732;52.248;-0.844;2022-08-19T05:16:11;2.10;;;1.10;;
62925;SDS011;55732;52.248;-0.844;2022-08-19T05:18:38;1.60;;;1.00;;
62925;SDS011;55732;52.248;-0.844;2022-08-19T05:21:23;1.90;;;1.20;;
62925;SDS011;55732;52.248;-0.844;2022-08-19T05:24:08;1.80;;;1.20;;
62925;SDS011;55732;52.248;-0.844;2022-08-19T05:26:37;2.00;;;1.20;;
62925;SDS011;55732;52.248;-0.844;2022-08-19T05:29:04;1.30;;;1.20;;
62925;SDS011;55732;52.248;-0.844;2022-08-19T05:31:32;1.40;;;1.30;;
62925;SDS011;55732;52.248;-0.844;2022-08-19T05:34:01;4.10;;;1.40;;
62925;SDS011;55732;52.248;-0.844;2022-08-19T05:36:29;1.30;;;1.20;;
62925;SDS011;55732;52.248;-0.844;2022-08-19T05:38:59;2.00;;;1.10;;
62925;SDS011;55732;52.248;-0.844;2022-08-19T05:41:26;2.10;;;1.10;;
62925;SDS011;55732;52.248;-0.844;2022-08-19T05:43:55;2.00;;;1.10;;
62925;SDS011;55732;52.248;-0.844;2022-08-19T05:46:25;4.10;;;1.30;;
62925;SDS011;55732;52.248;-0.844;2022-08-19T05:48:51;2.40;;;1.30;;
62925;SDS011;55732;52.248;-0.844;2022-08-19T05:51:17;5.20;;;1.20;;
62925;SDS011;55732;52.248;-0.844;2022-08-19T05:53:43;2.00;;;1.40;;
62925;SDS011;55732;52.248;-0.844;2022-08-19T05:56:14;1.40;;;1.30;;
62925;SDS011;55732;52.248;-0.844;2022-08-19T05:58:44;1.90;;;1.30;;
62925;SDS011;55732;52.248;-0.844;2022-08-19T06:01:11;5.50;;;1.40;;
62925;SDS011;55732;52.248;-0.844;2022-08-19T06:03:39;2.30;;;1.40;;
62925;SDS011;55732;52.248;-0.844;2022-08-19T06:06:09;1.40;;;1.20;;
62925;SDS011;55732;52.248;-0.844;2022-08-19T06:08:37;1.60;;;1.30;;
62925;SDS011;55732;52.248;-0.844;2022-08-19T06:14:01;2.40;;;1.30;;
62925;SDS011;55732;52.248;-0.844;2022-08-19T06:16:29;3.30;;;1.30;;
62925;SDS011;55732;52.248;-0.844;2022-08-19T06:18:57;3.50;;;1.40;;
62925;SDS011;55732;52.248;-0.844;2022-08-19T06:21:27;3.70;;;1.30;;
62925;SDS011;55732;52.248;-0.844;2022-08-19T06:26:20;2.70;;;1.40;;
62925;SDS011;55732;52.248;-0.844;2022-08-19T06:28:47;3.10;;;1.30;;
62925;SDS011;55732;52.248;-0.844;2022-08-19T06:31:13;4.10;;;1.40;;
62925;SDS011;55732;52.248;-0.844;2022-08-19T06:33:41;3.10;;;1.50;;
62925;SDS011;55732;52.248;-0.844;2022-08-19T06:36:15;3.90;;;1.40;;
62925;SDS011;55732;52.248;-0.844;2022-08-19T06:38:57;4.80;;;1.90;;
62925;SDS011;55732;52.248;-0.844;2022-08-19T06:41:24;2.90;;;1.60;;
62925;SDS011;55732;52.248;-0.844;2022-08-19T06:43:51;4.20;;;1.70;;
62925;SDS011;55732;52.248;-0.844;2022-08-19T06:46:17;4.30;;;1.60;;
62925;SDS011;55732;52.248;-0.844;2022-08-19T06:48:45;3.70;;;1.80;;
62925;SDS011;55732;52.248;-0.844;2022-08-19T06:51:12;3.90;;;2.10;;
62925;SDS011;55732;52.248;-0.844;2022-08-19T06:53:40;5.00;;;1.90;;
62925;SDS011;55732;52.248;-0.844;2022-08-19T06:56:12;4.80;;;1.70;;
62925;SDS011;55732;52.248;-0.844;2022-08-19T06:58:40;8.30;;;1.80;;
62925;SDS011;55732;52.248;-0.844;2022-08-19T07:01:06;4.00;;;1.90;;
62925;SDS011;55732;52.248;-0.844;2022-08-19T07:03:34;3.60;;;1.60;;
62925;SDS011;55732;52.248;-0.844;2022-08-19T07:06:04;4.60;;;1.90;;
62925;SDS011;55732;52.248;-0.844;2022-08-19T07:08:35;5.50;;;2.30;;
62925;SDS011;55732;52.248;-0.844;2022-08-19T07:11:02;6.80;;;2.20;;
62925;SDS011;55732;52.248;-0.844;2022-08-19T07:13:32;6.20;;;2.40;;
62925;SDS011;55732;52.248;-0.844;2022-08-19T07:16:05;3.10;;;2.00;;
62925;SDS011;55732;52.248;-0.844;2022-08-19T07:18:36;7.50;;;2.50;;
62925;SDS011;55732;52.248;-0.844;2022-08-19T07:21:05;6.50;;;2.10;;
62925;SDS011;55732;52.248;-0.844;2022-08-19T07:23:33;9.00;;;2.40;;
62925;SDS011;55732;52.248;-0.844;2022-08-19T07:26:05;4.50;;;2.00;;
62925;SDS011;55732;52.248;-0.844;2022-08-19T07:28:32;9.60;;;2.80;;
62925;SDS011;55732;52.248;-0.844;2022-08-19T07:30:58;6.20;;;2.20;;
62925;SDS011;55732;52.248;-0.844;2022-08-19T07:33:23;7.80;;;2.40;;
62925;SDS011;55732;52.248;-0.844;2022-08-19T07:35:49;10.00;;;2.70;;
62925;SDS011;55732;52.248;-0.844;2022-08-19T07:38:15;7.60;;;2.20;;
62925;SDS011;55732;52.248;-0.844;2022-08-19T07:40:41;10.50;;;2.50;;
62925;SDS011;55732;52.248;-0.844;2022-08-19T07:45:34;4.40;;;1.90;;
62925;SDS011;55732;52.248;-0.844;2022-08-19T07:47:59;6.10;;;2.30;;
62925;SDS011;55732;52.248;-0.844;2022-08-19T07:50:25;6.70;;;2.20;;
62925;SDS011;55732;52.248;-0.844;2022-08-19T07:52:51;8.90;;;2.40;;
62925;SDS011;55732;52.248;-0.844;2022-08-19T07:55:18;7.30;;;2.50;;
62925;SDS011;55732;52.248;-0.844;2022-08-19T07:57:46;8.40;;;2.50;;
62925;SDS011;55732;52.248;-0.844;2022-08-19T08:00:11;4.90;;;2.10;;
62925;SDS011;55732;52.248;-0.844;2022-08-19T08:02:37;6.60;;;2.20;;
62925;SDS011;55732;52.248;-0.844;2022-08-19T08:05:04;6.60;;;2.00;;
62925;SDS011;55732;52.248;-0.844;2022-08-19T08:07:48;6.80;;;2.20;;
62925;SDS011;55732;52.248;-0.844;2022-08-19T08:10:32;6.00;;;2.30;;
62925;SDS011;55732;52.248;-0.844;2022-08-19T08:12:58;6.20;;;2.30;;
62925;SDS011;55732;52.248;-0.844;2022-08-19T08:15:24;5.60;;;2.30;;
62925;SDS011;55732;52.248;-0.844;2022-08-19T08:17:49;4.80;;;2.10;;
62925;SDS011;55732;52.248;-0.844;2022-08-19T08:20:15;5.90;;;1.90;;
62925;SDS011;55732;52.248;-0.844;2022-08-19T08:22:45;7.00;;;2.00;;
62925;SDS011;55732;52.248;-0.844;2022-08-19T08:25:29;6.20;;;2.10;;
62925;SDS011;55732;52.248;-0.844;2022-08-19T08:30:24;5.50;;;2.20;;
62925;SDS011;55732;52.248;-0.844;2022-08-19T08:32:50;4.50;;;2.20;;
62925;SDS011;55732;52.248;-0.844;2022-08-19T08:35:17;9.50;;;2.60;;
62925;SDS011;55732;52.248;-0.844;2022-08-19T08:37:45;7.80;;;2.50;;
62925;SDS011;55732;52.248;-0.844;2022-08-19T08:40:38;5.10;;;2.30;;
62925;SDS011;55732;52.248;-0.844;2022-08-19T08:43:21;5.80;;;2.00;;
62925;SDS011;55732;52.248;-0.844;2022-08-19T08:46:42;8.90;;;2.70;;
62925;SDS011;55732;52.248;-0.844;2022-08-19T08:48:49;8.90;;;2.50;;
62925;SDS011;55732;52.248;-0.844;2022-08-19T08:51:25;6.90;;;2.60;;
62925;SDS011;55732;52.248;-0.844;2022-08-19T08:53:54;10.20;;;2.40;;
62925;SDS011;55732;52.248;-0.844;2022-08-19T08:56:21;6.60;;;2.50;;
62925;SDS011;55732;52.248;-0.844;2022-08-19T09:01:25;6.50;;;2.60;;
62925;SDS011;55732;52.248;-0.844;2022-08-19T09:03:51;11.50;;;2.90;;
62925;SDS011;55732;52.248;-0.844;2022-08-19T09:16:59;7.10;;;2.90;;
62925;SDS011;55732;52.248;-0.844;2022-08-19T09:19:28;6.90;;;2.70;;
62925;SDS011;55732;52.248;-0.844;2022-08-19T09:21:55;7.50;;;2.70;;
62925;SDS011;55732;52.248;-0.844;2022-08-19T09:24:20;7.50;;;2.70;;
62925;SDS011;55732;52.248;-0.844;2022-08-19T09:26:46;6.80;;;2.60;;
62925;SDS011;55732;52.248;-0.844;2022-08-19T09:29:12;7.90;;;2.50;;
62925;SDS011;55732;52.248;-0.844;2022-08-19T09:31:38;9.30;;;2.70;;
62925;SDS011;55732;52.248;-0.844;2022-08-19T09:34:03;5.90;;;2.40;;
62925;SDS011;55732;52.248;-0.844;2022-08-19T09:36:33;5.20;;;2.30;;
62925;SDS011;55732;52.248;-0.844;2022-08-19T09:39:01;6.30;;;2.10;;
62925;SDS011;55732;52.248;-0.844;2022-08-19T09:41:28;5.40;;;2.40;;
62925;SDS011;55732;52.248;-0.844;2022-08-19T09:43:54;5.90;;;2.20;;
62925;SDS011;55732;52.248;-0.844;2022-08-19T09:46:22;6.50;;;2.40;;
62925;SDS011;55732;52.248;-0.844;2022-08-19T09:48:50;5.10;;;2.20;;
62925;SDS011;55732;52.248;-0.844;2022-08-19T09:51:21;5.80;;;2.10;;
62925;SDS011;55732;52.248;-0.844;2022-08-19T09:53:49;6.40;;;2.40;;
62925;SDS011;55732;52.248;-0.844;2022-08-19T09:56:16;5.70;;;2.50;;
62925;SDS011;55732;52.248;-0.844;2022-08-19T09:58:43;5.40;;;2.30;;
62925;SDS011;55732;52.248;-0.844;2022-08-19T10:01:11;8.10;;;2.50;;
62925;SDS011;55732;52.248;-0.844;2022-08-19T10:03:47;9.40;;;2.10;;
62925;SDS011;55732;52.248;-0.844;2022-08-19T10:06:14;9.80;;;2.50;;
62925;SDS011;55732;52.248;-0.844;2022-08-19T10:08:41;7.00;;;2.30;;
62925;SDS011;55732;52.248;-0.844;2022-08-19T10:11:06;7.10;;;2.70;;
62925;SDS011;55732;52.248;-0.844;2022-08-19T10:13:35;8.20;;;3.60;;
62925;SDS011;55732;52.248;-0.844;2022-08-19T10:16:03;6.30;;;2.50;;
62925;SDS011;55732;52.248;-0.844;2022-08-19T10:18:31;7.50;;;2.40;;
62925;SDS011;55732;52.248;-0.844;2022-08-19T10:24:00;6.00;;;2.30;;
62925;SDS011;55732;52.248;-0.844;2022-08-19T10:26:30;6.50;;;2.80;;
62925;SDS011;55732;52.248;-0.844;2022-08-19T10:28:58;8.50;;;2.60;;
62925;SDS011;55732;52.248;-0.844;2022-08-19T10:31:25;6.30;;;2.50;;
62925;SDS011;55732;52.248;-0.844;2022-08-19T10:33:54;7.70;;;2.70;;
62925;SDS011;55732;52.248;-0.844;2022-08-19T10:36:24;9.40;;;2.70;;
62925;SDS011;55732;52.248;-0.844;2022-08-19T10:38:55;5.70;;;2.30;;
62925;SDS011;55732;52.248;-0.844;2022-08-19T10:41:25;5.50;;;2.20;;
62925;SDS011;55732;52.248;-0.844;2022-08-19T10:43:54;7.70;;;2.40;;
62925;SDS011;55732;52.248;-0.844;2022-08-19T10:46:22;7.70;;;2.30;;
62925;SDS011;55732;52.248;-0.844;2022-08-19T10:48:48;7.80;;;2.40;;
62925;SDS011;55732;52.248;-0.844;2022-08-19T10:53:59;10.30;;;2.40;;
62925;SDS011;55732;52.248;-0.844;2022-08-19T10:56:25;5.40;;;2.20;;
62925;SDS011;55732;52.248;-0.844;2022-08-19T10:59:09;5.40;;;2.30;;
62925;SDS011;55732;52.248;-0.844;2022-08-19T11:01:37;11.40;;;2.70;;
62925;SDS011;55732;52.248;-0.844;2022-08-19T11:04:03;6.20;;;2.40;;
62925;SDS011;55732;52.248;-0.844;2022-08-19T11:06:32;6.10;;;2.40;;
62925;SDS011;55732;52.248;-0.844;2022-08-19T11:08:58;11.20;;;3.00;;
62925;SDS011;55732;52.248;-0.844;2022-08-19T11:11:25;9.70;;;2.60;;
62925;SDS011;55732;52.248;-0.844;2022-08-19T11:13:51;12.70;;;2.90;;
62925;SDS011;55732;52.248;-0.844;2022-08-19T11:16:18;14.10;;;3.20;;
62925;SDS011;55732;52.248;-0.844;2022-08-19T11:18:48;9.30;;;2.70;;
62925;SDS011;55732;52.248;-0.844;2022-08-19T11:21:16;13.00;;;3.00;;
62925;SDS011;55732;52.248;-0.844;2022-08-19T11:23:45;10.40;;;2.70;;
62925;SDS011;55732;52.248;-0.844;2022-08-19T11:26:12;8.30;;;2.30;;
62925;SDS011;55732;52.248;-0.844;2022-08-19T11:28:39;6.60;;;2.30;;
62925;SDS011;55732;52.248;-0.844;2022-08-19T11:31:09;8.80;;;2.50;;
62925;SDS011;55732;52.248;-0.844;2022-08-19T11:33:36;9.70;;;2.70;;
62925;SDS011;55732;52.248;-0.844;2022-08-19T11:36:02;5.80;;;2.30;;
62925;SDS011;55732;52.248;-0.844;2022-08-19T11:38:28;5.00;;;2.00;;
62925;SDS011;55732;52.248;-0.844;2022-08-19T11:40:56;7.20;;;2.30;;
62925;SDS011;55732;52.248;-0.844;2022-08-19T11:43:22;7.50;;;2.10;;
62925;SDS011;55732;52.248;-0.844;2022-08-19T11:45:48;13.80;;;2.50;;
62925;SDS011;55732;52.248;-0.844;2022-08-19T11:48:13;7.90;;;2.50;;
62925;SDS011;55732;52.248;-0.844;2022-08-19T11:50:39;8.20;;;2.70;;
62925;SDS011;55732;52.248;-0.844;2022-08-19T11:53:06;8.90;;;2.10;;
62925;SDS011;55732;52.248;-0.844;2022-08-19T11:55:31;7.90;;;2.30;;
62925;SDS011;55732;52.248;-0.844;2022-08-19T11:57:57;8.20;;;2.00;;
62925;SDS011;55732;52.248;-0.844;2022-08-19T12:00:22;13.70;;;2.40;;
62925;SDS011;55732;52.248;-0.844;2022-08-19T12:02:48;6.30;;;2.10;;
62925;SDS011;55732;52.248;-0.844;2022-08-19T12:05:13;9.30;;;2.00;;
62925;SDS011;55732;52.248;-0.844;2022-08-19T12:07:39;6.80;;;2.50;;
62925;SDS011;55732;52.248;-0.844;2022-08-19T12:10:06;9.00;;;2.40;;
62925;SDS011;55732;52.248;-0.844;2022-08-19T12:12:32;8.10;;;2.70;;
62925;SDS011;55732;52.248;-0.844;2022-08-19T12:14:57;6.10;;;2.70;;
62925;SDS011;55732;52.248;-0.844;2022-08-19T12:17:24;7.10;;;2.20;;
62925;SDS011;55732;52.248;-0.844;2022-08-19T12:19:51;7.20;;;2.20;;
62925;SDS011;55732;52.248;-0.844;2022-08-19T12:22:17;6.00;;;1.90;;
62925;SDS011;55732;52.248;-0.844;2022-08-19T12:24:43;5.90;;;1.80;;
62925;SDS011;55732;52.248;-0.844;2022-08-19T12:27:09;4.90;;;2.20;;
62925;SDS011;55732;52.248;-0.844;2022-08-19T12:29:34;11.10;;;2.30;;
62925;SDS011;55732;52.248;-0.844;2022-08-19T12:31:59;8.20;;;2.20;;
62925;SDS011;55732;52.248;-0.844;2022-08-19T12:34:28;5.60;;;2.00;;
62925;SDS011;55732;52.248;-0.844;2022-08-19T12:36:58;5.20;;;2.00;;
62925;SDS011;55732;52.248;-0.844;2022-08-19T12:39:26;7.80;;;2.30;;
62925;SDS011;55732;52.248;-0.844;2022-08-19T12:41:51;6.50;;;2.30;;
62925;SDS011;55732;52.248;-0.844;2022-08-19T12:44:18;5.00;;;1.80;;
62925;SDS011;55732;52.248;-0.844;2022-08-19T12:46:44;3.80;;;1.70;;
62925;SDS011;55732;52.248;-0.844;2022-08-19T12:49:09;6.30;;;2.00;;
62925;SDS011;55732;52.248;-0.844;2022-08-19T12:51:35;10.30;;;2.20;;
62925;SDS011;55732;52.248;-0.844;2022-08-19T12:54:01;6.40;;;2.10;;
62925;SDS011;55732;52.248;-0.844;2022-08-19T12:56:27;11.50;;;2.70;;
62925;SDS011;55732;52.248;-0.844;2022-08-19T12:58:52;6.40;;;2.10;;
62925;SDS011;55732;52.248;-0.844;2022-08-19T13:01:18;6.50;;;2.00;;
62925;SDS011;55732;52.248;-0.844;2022-08-19T13:03:44;6.70;;;2.00;;
62925;SDS011;55732;52.248;-0.844;2022-08-19T13:06:10;6.40;;;1.90;;
62925;SDS011;55732;52.248;-0.844;2022-08-19T13:08:36;12.20;;;2.10;;
62925;SDS011;55732;52.248;-0.844;2022-08-19T13:13:33;8.60;;;2.30;;
62925;SDS011;55732;52.248;-0.844;2022-08-19T13:16:01;5.90;;;2.40;;
62925;SDS011;55732;52.248;-0.844;2022-08-19T13:18:28;4.10;;;1.80;;
62925;SDS011;55732;52.248;-0.844;2022-08-19T13:20:53;6.00;;;2.40;;
62925;SDS011;55732;52.248;-0.844;2022-08-19T13:23:19;4.30;;;2.20;;
62925;SDS011;55732;52.248;-0.844;2022-08-19T13:25:44;8.40;;;1.80;;
62925;SDS011;55732;52.248;-0.844;2022-08-19T13:28:10;6.40;;;2.20;;
62925;SDS011;55732;52.248;-0.844;2022-08-19T13:30:35;8.60;;;2.30;;
62925;SDS011;55732;52.248;-0.844;2022-08-19T13:33:19;8.40;;;2.20;;
62925;SDS011;55732;52.248;-0.844;2022-08-19T13:35:47;4.70;;;2.10;;
62925;SDS011;55732;52.248;-0.844;2022-08-19T13:38:19;5.80;;;2.00;;
62925;SDS011;55732;52.248;-0.844;2022-08-19T13:40:47;8.10;;;2.40;;
62925;SDS011;55732;52.248;-0.844;2022-08-19T13:43:14;6.60;;;2.20;;
62925;SDS011;55732;52.248;-0.844;2022-08-19T13:45:41;5.20;;;1.80;;
62925;SDS011;55732;52.248;-0.844;2022-08-19T13:48:07;3.40;;;1.90;;
62925;SDS011;55732;52.248;-0.844;2022-08-19T13:50:34;9.40;;;2.00;;
62925;SDS011;55732;52.248;-0.844;2022-08-19T13:53:06;10.50;;;2.30;;
62925;SDS011;55732;52.248;-0.844;2022-08-19T13:57:59;8.20;;;2.30;;
62925;SDS011;55732;52.248;-0.844;2022-08-19T14:00:28;6.80;;;1.90;;
62925;SDS011;55732;52.248;-0.844;2022-08-19T14:02:55;8.10;;;2.00;;
62925;SDS011;55732;52.248;-0.844;2022-08-19T14:05:22;8.00;;;2.20;;
62925;SDS011;55732;52.248;-0.844;2022-08-19T14:07:50;7.80;;;2.00;;
62925;SDS011;55732;52.248;-0.844;2022-08-19T14:10:16;4.50;;;1.80;;
62925;SDS011;55732;52.248;-0.844;2022-08-19T14:12:41;6.80;;;2.10;;
62925;SDS011;55732;52.248;-0.844;2022-08-19T14:15:08;9.90;;;2.20;;
62925;SDS011;55732;52.248;-0.844;2022-08-19T14:17:37;6.90;;;2.00;;
62925;SDS011;55732;52.248;-0.844;2022-08-19T14:20:06;7.50;;;1.90;;
62925;SDS011;55732;52.248;-0.844;2022-08-19T14:22:35;4.80;;;1.90;;
62925;SDS011;55732;52.248;-0.844;2022-08-19T14:25:02;7.10;;;2.10;;
62925;SDS011;55732;52.248;-0.844;2022-08-19T14:27:30;7.10;;;2.30;;
62925;SDS011;55732;52.248;-0.844;2022-08-19T14:29:57;5.50;;;2.10;;
62925;SDS011;55732;52.248;-0.844;2022-08-19T14:32:24;10.70;;;2.00;;
62925;SDS011;55732;52.248;-0.844;2022-08-19T14:34:52;7.60;;;1.90;;
62925;SDS011;55732;52.248;-0.844;2022-08-19T14:37:18;7.60;;;2.50;;
62925;SDS011;55732;52.248;-0.844;2022-08-19T14:39:44;7.20;;;2.20;;
62925;SDS011;55732;52.248;-0.844;2022-08-19T14:42:10;7.20;;;2.30;;
62925;SDS011;55732;52.248;-0.844;2022-08-19T14:44:39;6.20;;;2.20;;
62925;SDS011;55732;52.248;-0.844;2022-08-19T14:47:04;8.50;;;2.40;;
62925;SDS011;55732;52.248;-0.844;2022-08-19T14:49:32;6.80;;;2.30;;
62925;SDS011;55732;52.248;-0.844;2022-08-19T14:51:57;5.90;;;2.30;;
62925;SDS011;55732;52.248;-0.844;2022-08-19T14:54:22;8.10;;;1.90;;
62925;SDS011;55732;52.248;-0.844;2022-08-19T14:56:48;5.60;;;2.00;;
62925;SDS011;55732;52.248;-0.844;2022-08-19T14:59:14;8.10;;;2.10;;
62925;SDS011;55732;52.248;-0.844;2022-08-19T15:01:39;7.30;;;1.90;;
62925;SDS011;55732;52.248;-0.844;2022-08-19T15:04:05;6.50;;;2.30;;
62925;SDS011;55732;52.248;-0.844;2022-08-19T15:06:31;7.20;;;2.10;;
62925;SDS011;55732;52.248;-0.844;2022-08-19T15:08:56;5.70;;;2.00;;
62925;SDS011;55732;52.248;-0.844;2022-08-19T15:11:23;9.30;;;2.40;;
62925;SDS011;55732;52.248;-0.844;2022-08-19T15:13:51;4.90;;;1.60;;